createdAt,value
2018-06-16T00:00:19.932Z,804.70
2018-06-16T00:01:19.983Z,837.40
2018-06-16T00:02:20.013Z,877.00
2018-06-16T00:03:20.048Z,827.50
2018-06-16T00:04:20.101Z,822.80
2018-06-16T00:05:20.235Z,818.20
2018-06-16T00:06:20.175Z,836.50
2018-06-16T00:07:20.230Z,812.00
2018-06-16T00:08:20.255Z,855.70
2018-06-16T00:09:20.317Z,855.50
2018-06-16T00:10:20.358Z,817.40
2018-06-16T00:11:20.506Z,859.80
2018-06-16T00:12:20.433Z,827.20
2018-06-16T00:13:20.481Z,898.10
2018-06-16T00:14:20.518Z,852.90
2018-06-16T00:15:20.559Z,864.30
2018-06-16T00:16:20.593Z,820.90
2018-06-16T00:17:20.634Z,827.30
2018-06-16T00:18:20.670Z,847.60
2018-06-16T00:19:20.719Z,826.30
2018-06-16T00:20:20.767Z,831.50
2018-06-16T00:21:20.896Z,836.00
2018-06-16T00:22:20.843Z,836.60
2018-06-16T00:23:20.894Z,820.60
2018-06-16T00:24:20.928Z,841.40
2018-06-16T00:25:20.974Z,813.50
2018-06-16T00:26:21.022Z,846.20
2018-06-16T00:27:21.144Z,815.30
2018-06-16T00:28:21.097Z,840.60
2018-06-16T00:29:21.135Z,812.50
2018-06-16T00:30:21.184Z,831.30
2018-06-16T00:31:21.217Z,794.30
2018-06-16T00:32:21.270Z,816.80
2018-06-16T00:33:21.320Z,809.10
2018-06-16T00:34:21.350Z,819.40
2018-06-16T00:35:21.380Z,825.10
2018-06-16T00:36:21.428Z,811.20
2018-06-16T00:37:21.581Z,872.60
2018-06-16T00:38:21.517Z,832.50
2018-06-16T00:39:21.573Z,814.10
2018-06-16T00:40:21.587Z,813.50
2018-06-16T00:41:21.721Z,805.10
2018-06-16T00:42:21.903Z,816.40
2018-06-16T00:43:21.717Z,824.70
2018-06-16T00:44:21.761Z,802.90
2018-06-16T00:45:21.814Z,809.50
2018-06-16T00:46:21.865Z,822.50
2018-06-16T00:47:21.979Z,826.70
2018-06-16T00:48:21.951Z,830.20
2018-06-16T00:49:21.968Z,846.00
2018-06-16T00:50:22.012Z,835.80
2018-06-16T00:51:22.054Z,814.70
2018-06-16T00:52:22.089Z,807.40
2018-06-16T00:53:22.344Z,795.90
2018-06-16T00:54:22.173Z,829.70
2018-06-16T00:55:22.218Z,827.00
2018-06-16T00:56:22.277Z,837.90
2018-06-16T00:57:22.320Z,833.30
2018-06-16T00:58:22.449Z,793.40
2018-06-16T00:59:22.390Z,826.00
2018-06-16T01:00:22.446Z,862.80
2018-06-16T01:01:22.481Z,881.30
2018-06-16T01:02:22.526Z,827.70
2018-06-16T01:03:22.552Z,816.60
2018-06-16T01:04:22.790Z,853.60
2018-06-16T01:05:22.638Z,862.70
2018-06-16T01:06:22.673Z,900.50
2018-06-16T01:07:22.721Z,807.50
2018-06-16T01:08:22.756Z,822.30
2018-06-16T01:09:22.802Z,817.50
2018-06-16T01:10:22.941Z,834.80
2018-06-16T01:11:22.886Z,823.40
2018-06-16T01:12:22.931Z,785.60
2018-06-16T01:13:22.988Z,797.80
2018-06-16T01:14:23.011Z,800.60
2018-06-16T01:15:23.267Z,798.60
2018-06-16T01:16:23.217Z,788.00
2018-06-16T01:17:23.150Z,838.00
2018-06-16T01:18:23.187Z,778.80
2018-06-16T01:19:23.234Z,798.90
2018-06-16T01:20:23.254Z,747.00
2018-06-16T01:21:23.317Z,750.70
2018-06-16T01:22:23.351Z,729.90
2018-06-16T01:23:23.397Z,791.20
2018-06-16T01:24:23.436Z,758.20
2018-06-16T01:25:23.571Z,770.70
2018-06-16T01:26:23.532Z,813.10
2018-06-16T01:27:23.571Z,741.20
2018-06-16T01:28:23.585Z,786.90
2018-06-16T01:29:23.640Z,770.60
2018-06-16T01:30:23.671Z,806.50
2018-06-16T01:31:23.727Z,798.70
2018-06-16T01:32:23.765Z,766.90
2018-06-16T01:33:23.819Z,776.90
2018-06-16T01:34:23.837Z,770.50
2018-06-16T01:35:23.903Z,773.60
2018-06-16T01:36:23.932Z,763.60
2018-06-16T01:37:24.082Z,767.00
2018-06-16T01:38:24.015Z,793.40
2018-06-16T01:39:24.071Z,782.50
2018-06-16T01:40:24.088Z,857.80
2018-06-16T01:41:24.138Z,783.10
2018-06-16T01:42:24.198Z,788.70
2018-06-16T01:43:24.307Z,830.50
2018-06-16T01:44:24.251Z,932.00
2018-06-16T01:45:24.292Z,798.80
2018-06-16T01:46:24.349Z,792.50
2018-06-16T01:47:24.393Z,825.30
2018-06-16T01:48:24.430Z,804.10
2018-06-16T01:49:24.565Z,825.20
2018-06-16T01:50:24.522Z,798.70
2018-06-16T01:51:24.572Z,849.90
2018-06-16T01:52:24.583Z,796.50
2018-06-16T01:53:24.637Z,777.80
2018-06-16T01:54:24.683Z,794.70
2018-06-16T01:55:24.723Z,804.70
2018-06-16T01:56:24.747Z,811.30
2018-06-16T01:57:24.807Z,800.30
2018-06-16T01:58:24.844Z,795.10
2018-06-16T01:59:24.992Z,812.50
2018-06-16T02:00:24.913Z,789.10
2018-06-16T02:01:24.963Z,849.60
2018-06-16T02:02:25.012Z,762.80
2018-06-16T02:03:25.040Z,797.20
2018-06-16T02:04:25.087Z,767.70
2018-06-16T02:05:25.383Z,814.90
2018-06-16T02:06:25.178Z,808.60
2018-06-16T02:07:25.230Z,747.80
2018-06-16T02:08:25.278Z,783.70
2018-06-16T02:09:25.300Z,764.80
2018-06-16T02:10:25.436Z,727.80
2018-06-16T02:11:25.371Z,737.50
2018-06-16T02:12:25.421Z,727.60
2018-06-16T02:13:25.484Z,736.50
2018-06-16T02:14:25.500Z,749.40
2018-06-16T02:15:25.544Z,736.40
2018-06-16T02:16:25.579Z,742.50
2018-06-16T02:17:25.622Z,719.20
2018-06-16T02:18:25.668Z,757.90
2018-06-16T02:19:25.716Z,777.70
2018-06-16T02:20:25.851Z,729.40
2018-06-16T02:21:25.798Z,768.30
2018-06-16T02:22:25.830Z,735.80
2018-06-16T02:23:25.900Z,746.50
2018-06-16T02:24:25.924Z,755.50
2018-06-16T02:25:25.954Z,753.90
2018-06-16T02:26:26.260Z,754.40
2018-06-16T02:27:26.036Z,748.10
2018-06-16T02:28:26.082Z,746.80
2018-06-16T02:29:26.126Z,761.50
2018-06-16T02:30:26.164Z,739.60
2018-06-16T02:31:26.211Z,757.60
2018-06-16T02:32:26.346Z,744.70
2018-06-16T02:33:26.285Z,752.80
2018-06-16T02:34:26.327Z,729.10
2018-06-16T02:35:26.372Z,785.50
2018-06-16T02:36:26.434Z,821.90
2018-06-16T02:37:26.456Z,764.00
2018-06-16T02:38:26.708Z,789.10
2018-06-16T02:39:26.554Z,754.70
2018-06-16T02:40:26.578Z,789.30
2018-06-16T02:41:26.629Z,760.30
2018-06-16T02:42:26.676Z,744.30
2018-06-16T02:43:26.711Z,763.40
2018-06-16T02:44:26.856Z,790.60
2018-06-16T02:45:26.799Z,737.40
2018-06-16T02:46:26.823Z,727.70
2018-06-16T02:47:26.892Z,805.20
2018-06-16T02:48:26.927Z,756.60
2018-06-16T02:49:26.967Z,804.30
2018-06-16T02:50:27.153Z,752.80
2018-06-16T02:51:27.054Z,731.30
2018-06-16T02:52:27.097Z,808.60
2018-06-16T02:53:27.122Z,768.30
2018-06-16T02:54:27.379Z,775.00
2018-06-16T02:55:27.307Z,740.80
2018-06-16T02:56:27.252Z,733.70
2018-06-16T02:57:27.288Z,765.60
2018-06-16T02:58:27.329Z,761.50
2018-06-16T02:59:27.378Z,730.40
2018-06-16T03:00:27.419Z,751.40
2018-06-16T03:01:27.466Z,769.40
2018-06-16T03:02:27.504Z,741.90
2018-06-16T03:03:27.544Z,737.40
2018-06-16T03:04:27.588Z,736.50
2018-06-16T03:05:27.816Z,754.40
2018-06-16T03:06:27.683Z,692.50
2018-06-16T03:07:27.736Z,804.30
2018-06-16T03:08:27.763Z,797.80
2018-06-16T03:09:27.796Z,749.00
2018-06-16T03:10:27.828Z,759.20
2018-06-16T03:11:27.975Z,763.70
2018-06-16T03:12:27.911Z,750.80
2018-06-16T03:13:27.972Z,757.70
2018-06-16T03:14:28.007Z,748.30
2018-06-16T03:15:28.053Z,730.80
2018-06-16T03:16:28.078Z,785.50
2018-06-16T03:17:28.330Z,758.80
2018-06-16T03:18:28.171Z,763.90
2018-06-16T03:19:28.203Z,772.20
2018-06-16T03:20:29.464Z,762.20
2018-06-16T03:21:28.277Z,758.10
2018-06-16T03:22:28.332Z,726.60
2018-06-16T03:23:28.528Z,765.60
2018-06-16T03:24:28.429Z,741.30
2018-06-16T03:25:28.444Z,776.80
2018-06-16T03:26:28.485Z,775.80
2018-06-16T03:27:28.539Z,755.50
2018-06-16T03:28:28.575Z,779.40
2018-06-16T03:29:28.830Z,737.40
2018-06-16T03:30:28.669Z,749.50
2018-06-16T03:31:28.729Z,770.20
2018-06-16T03:32:28.735Z,731.30
2018-06-16T03:33:28.785Z,754.40
2018-06-16T03:34:28.876Z,760.10
2018-06-16T03:35:28.979Z,781.10
2018-06-16T03:36:28.922Z,743.30
2018-06-16T03:37:28.958Z,756.90
2018-06-16T03:38:28.984Z,738.60
2018-06-16T03:39:29.045Z,768.90
2018-06-16T03:40:29.286Z,710.30
2018-06-16T03:41:29.135Z,753.70
2018-06-16T03:42:29.156Z,751.20
2018-06-16T03:43:29.228Z,749.40
2018-06-16T03:44:29.269Z,756.40
2018-06-16T03:45:29.285Z,743.50
2018-06-16T03:46:29.417Z,724.60
2018-06-16T03:47:29.375Z,755.10
2018-06-16T03:48:29.420Z,738.00
2018-06-16T03:49:29.463Z,760.00
2018-06-16T03:50:29.496Z,753.10
2018-06-16T03:51:29.543Z,771.10
2018-06-16T03:52:29.835Z,746.60
2018-06-16T03:53:29.611Z,747.60
2018-06-16T03:54:29.669Z,806.70
2018-06-16T03:55:29.703Z,769.90
2018-06-16T03:56:29.757Z,719.50
2018-06-16T03:57:29.896Z,758.30
2018-06-16T03:58:29.829Z,734.60
2018-06-16T03:59:29.858Z,738.10
2018-06-16T04:00:29.916Z,782.70
2018-06-16T04:01:29.952Z,744.90
2018-06-16T04:02:30.007Z,808.20
2018-06-16T04:03:30.032Z,745.30
2018-06-16T04:04:30.083Z,812.90
2018-06-16T04:05:30.129Z,800.30
2018-06-16T04:06:30.190Z,775.50
2018-06-16T04:07:30.397Z,777.30
2018-06-16T04:08:30.257Z,764.50
2018-06-16T04:09:30.291Z,791.40
2018-06-16T04:10:30.319Z,720.50
2018-06-16T04:11:30.358Z,777.30
2018-06-16T04:12:30.514Z,728.20
2018-06-16T04:13:30.442Z,800.70
2018-06-16T04:14:30.505Z,825.60
2018-06-16T04:15:30.531Z,793.80
2018-06-16T04:16:30.601Z,754.10
2018-06-16T04:17:30.626Z,776.80
2018-06-16T04:18:30.871Z,704.80
2018-06-16T04:19:30.696Z,769.30
2018-06-16T04:20:30.751Z,751.20
2018-06-16T04:21:30.794Z,776.20
2018-06-16T04:22:30.844Z,799.80
2018-06-16T04:23:30.876Z,762.80
2018-06-16T04:24:31.008Z,780.70
2018-06-16T04:25:30.956Z,732.10
2018-06-16T04:26:30.985Z,763.10
2018-06-16T04:27:31.044Z,734.70
2018-06-16T04:28:31.069Z,787.20
2018-06-16T04:29:31.143Z,757.90
2018-06-16T04:30:31.179Z,729.20
2018-06-16T04:31:31.188Z,715.50
2018-06-16T04:32:31.270Z,751.30
2018-06-16T04:33:31.285Z,749.20
2018-06-16T04:34:31.547Z,743.50
2018-06-16T04:35:31.477Z,775.20
2018-06-16T04:36:31.418Z,730.80
2018-06-16T04:37:31.464Z,727.60
2018-06-16T04:38:31.507Z,736.80
2018-06-16T04:39:31.534Z,800.30
2018-06-16T04:40:31.576Z,708.10
2018-06-16T04:41:31.840Z,758.30
2018-06-16T04:42:31.663Z,757.40
2018-06-16T04:43:31.711Z,789.40
2018-06-16T04:44:31.726Z,744.50
2018-06-16T04:45:31.869Z,725.00
2018-06-16T04:46:31.936Z,756.60
2018-06-16T04:47:31.852Z,766.80
2018-06-16T04:48:31.919Z,799.50
2018-06-16T04:49:31.950Z,720.30
2018-06-16T04:50:31.998Z,787.50
2018-06-16T04:51:32.042Z,769.50
2018-06-16T04:52:32.287Z,778.20
2018-06-16T04:53:32.107Z,757.70
2018-06-16T04:54:32.151Z,712.30
2018-06-16T04:55:32.222Z,725.30
2018-06-16T04:56:32.232Z,723.30
2018-06-16T04:57:32.296Z,751.10
2018-06-16T04:58:32.431Z,775.60
2018-06-16T04:59:32.348Z,753.80
2018-06-16T05:00:32.422Z,747.20
2018-06-16T05:01:32.448Z,752.70
2018-06-16T05:02:32.497Z,737.90
2018-06-16T05:03:32.559Z,711.30
2018-06-16T05:04:32.825Z,786.70
2018-06-16T05:05:32.612Z,742.10
2018-06-16T05:06:32.644Z,706.90
2018-06-16T05:07:32.682Z,719.30
2018-06-16T05:08:32.792Z,715.70
2018-06-16T05:09:32.790Z,691.20
2018-06-16T05:10:32.920Z,731.90
2018-06-16T05:11:32.884Z,727.30
2018-06-16T05:12:32.921Z,722.30
2018-06-16T05:13:32.935Z,760.90
2018-06-16T05:14:32.988Z,738.90
2018-06-16T05:15:33.014Z,744.70
2018-06-16T05:16:33.263Z,701.90
2018-06-16T05:17:33.118Z,704.40
2018-06-16T05:18:33.169Z,735.00
2018-06-16T05:19:33.213Z,734.20
2018-06-16T05:20:33.233Z,665.40
2018-06-16T05:21:33.283Z,719.70
2018-06-16T05:22:33.339Z,697.90
2018-06-16T05:23:33.370Z,705.20
2018-06-16T05:24:33.402Z,675.10
2018-06-16T05:25:33.457Z,714.10
2018-06-16T05:26:33.594Z,709.60
2018-06-16T05:27:33.593Z,658.80
2018-06-16T05:28:33.561Z,661.80
2018-06-16T05:29:33.694Z,670.30
2018-06-16T05:30:33.661Z,670.00
2018-06-16T05:31:33.931Z,677.40
2018-06-16T05:32:33.738Z,709.00
2018-06-16T05:33:33.796Z,656.30
2018-06-16T05:34:33.808Z,650.80
2018-06-16T05:35:33.866Z,637.40
2018-06-16T05:36:34.007Z,711.60
2018-06-16T05:37:33.964Z,685.50
2018-06-16T05:38:33.975Z,655.10
2018-06-16T05:39:34.013Z,653.50
2018-06-16T05:40:34.068Z,684.40
2018-06-16T05:41:34.382Z,676.00
2018-06-16T05:42:34.151Z,637.90
2018-06-16T05:43:34.196Z,646.10
2018-06-16T05:44:34.225Z,680.60
2018-06-16T05:45:34.274Z,669.20
2018-06-16T05:46:34.307Z,658.80
2018-06-16T05:47:34.387Z,645.40
2018-06-16T05:48:34.408Z,693.00
2018-06-16T05:49:34.436Z,689.80
2018-06-16T05:50:34.473Z,640.40
2018-06-16T05:51:34.631Z,682.70
2018-06-16T05:52:34.571Z,691.60
2018-06-16T05:53:34.607Z,619.70
2018-06-16T05:54:34.651Z,762.40
2018-06-16T05:55:34.717Z,666.00
2018-06-16T05:56:36.269Z,652.80
2018-06-16T05:57:34.783Z,706.10
2018-06-16T05:58:34.799Z,658.50
2018-06-16T05:59:34.861Z,722.30
2018-06-16T06:00:34.942Z,697.90
2018-06-16T06:01:34.935Z,664.90
2018-06-16T06:02:35.068Z,660.40
2018-06-16T06:03:35.055Z,686.80
2018-06-16T06:04:35.049Z,707.00
2018-06-16T06:05:35.104Z,646.70
2018-06-16T06:06:35.149Z,683.80
2018-06-16T06:07:35.196Z,691.50
2018-06-16T06:08:35.409Z,691.80
2018-06-16T06:09:35.284Z,681.00
2018-06-16T06:10:35.382Z,677.80
2018-06-16T06:11:35.375Z,713.40
2018-06-16T06:12:35.384Z,705.40
2018-06-16T06:13:35.422Z,728.10
2018-06-16T06:14:35.469Z,673.00
2018-06-16T06:15:35.504Z,702.80
2018-06-16T06:16:35.557Z,688.30
2018-06-16T06:17:35.588Z,695.00
2018-06-16T06:18:35.729Z,706.00
2018-06-16T06:19:35.695Z,705.50
2018-06-16T06:20:35.727Z,700.80
2018-06-16T06:21:35.754Z,708.30
2018-06-16T06:22:35.814Z,735.10
2018-06-16T06:23:35.860Z,721.00
2018-06-16T06:24:35.904Z,709.00
2018-06-16T06:25:35.940Z,720.40
2018-06-16T06:26:36.007Z,694.00
2018-06-16T06:27:36.035Z,707.50
2018-06-16T06:28:36.258Z,698.30
2018-06-16T06:29:36.090Z,655.80
2018-06-16T06:30:36.144Z,716.90
2018-06-16T06:31:36.194Z,701.90
2018-06-16T06:32:36.241Z,684.20
2018-06-16T06:33:36.370Z,777.60
2018-06-16T06:34:36.292Z,698.50
2018-06-16T06:35:36.334Z,691.70
2018-06-16T06:36:36.375Z,706.70
2018-06-16T06:37:36.432Z,709.00
2018-06-16T06:38:36.480Z,675.70
2018-06-16T06:39:36.768Z,694.20
2018-06-16T06:40:36.555Z,673.80
2018-06-16T06:41:36.581Z,683.00
2018-06-16T06:42:36.637Z,676.90
2018-06-16T06:43:36.703Z,718.60
2018-06-16T06:44:36.733Z,700.00
2018-06-16T06:45:36.848Z,718.70
2018-06-16T06:46:36.809Z,671.10
2018-06-16T06:47:36.846Z,701.20
2018-06-16T06:48:36.907Z,700.60
2018-06-16T06:49:36.934Z,683.50
2018-06-16T06:50:36.957Z,687.10
2018-06-16T06:51:37.201Z,714.30
2018-06-16T06:52:37.054Z,713.10
2018-06-16T06:53:37.083Z,682.90
2018-06-16T06:54:37.130Z,722.70
2018-06-16T06:55:37.176Z,721.80
2018-06-16T06:56:37.226Z,743.40
2018-06-16T06:57:37.370Z,732.60
2018-06-16T06:58:37.291Z,714.40
2018-06-16T06:59:37.348Z,738.40
2018-06-16T07:00:37.392Z,711.90
2018-06-16T07:01:37.435Z,724.00
2018-06-16T07:02:37.473Z,700.90
2018-06-16T07:03:37.711Z,753.20
2018-06-16T07:04:37.547Z,736.60
2018-06-16T07:05:37.587Z,671.50
2018-06-16T07:06:37.631Z,685.80
2018-06-16T07:07:37.691Z,756.90
2018-06-16T07:08:37.720Z,729.80
2018-06-16T07:09:37.870Z,677.20
2018-06-16T07:10:37.860Z,695.80
2018-06-16T07:11:37.835Z,738.50
2018-06-16T07:12:37.875Z,740.70
2018-06-16T07:13:37.914Z,769.00
2018-06-16T07:14:37.972Z,707.10
2018-06-16T07:15:38.016Z,713.60
2018-06-16T07:16:38.042Z,718.60
2018-06-16T07:17:38.103Z,685.80
2018-06-16T07:18:38.121Z,718.90
2018-06-16T07:19:38.363Z,697.00
2018-06-16T07:20:38.223Z,763.30
2018-06-16T07:21:38.262Z,693.60
2018-06-16T07:22:38.297Z,746.20
2018-06-16T07:23:38.385Z,721.60
2018-06-16T07:24:38.476Z,695.00
2018-06-16T07:25:38.438Z,670.30
2018-06-16T07:26:38.459Z,724.50
2018-06-16T07:27:38.496Z,780.30
2018-06-16T07:28:38.552Z,716.60
2018-06-16T07:29:38.601Z,701.10
2018-06-16T07:30:38.876Z,691.90
2018-06-16T07:31:38.682Z,674.80
2018-06-16T07:32:38.718Z,707.90
2018-06-16T07:33:38.752Z,696.00
2018-06-16T07:34:38.837Z,716.80
2018-06-16T07:35:38.941Z,724.60
2018-06-16T07:36:38.878Z,720.70
2018-06-16T07:37:38.924Z,695.10
2018-06-16T07:38:38.955Z,696.50
2018-06-16T07:39:39.000Z,707.70
2018-06-16T07:40:39.053Z,651.30
2018-06-16T07:41:39.300Z,655.40
2018-06-16T07:42:39.136Z,645.10
2018-06-16T07:43:39.177Z,665.40
2018-06-16T07:44:39.225Z,668.60
2018-06-16T07:45:39.252Z,651.00
2018-06-16T07:46:39.305Z,654.70
2018-06-16T07:47:39.348Z,689.30
2018-06-16T07:48:39.397Z,674.60
2018-06-16T07:49:39.413Z,655.40
2018-06-16T07:50:39.473Z,714.90
2018-06-16T07:51:39.593Z,698.90
2018-06-16T07:52:39.556Z,696.10
2018-06-16T07:53:39.577Z,730.80
2018-06-16T07:54:39.638Z,751.50
2018-06-16T07:55:39.685Z,766.90
2018-06-16T07:56:40.016Z,758.30
2018-06-16T07:57:39.770Z,732.40
2018-06-16T07:58:39.784Z,741.70
2018-06-16T07:59:39.832Z,779.60
2018-06-16T08:00:39.881Z,795.90
2018-06-16T08:01:39.928Z,771.30
2018-06-16T08:02:40.076Z,790.20
2018-06-16T08:03:40.001Z,746.20
2018-06-16T08:04:40.050Z,795.50
2018-06-16T08:05:40.072Z,798.50
2018-06-16T08:06:40.119Z,781.70
2018-06-16T08:07:40.370Z,774.50
2018-06-16T08:08:40.214Z,778.80
2018-06-16T08:09:40.269Z,762.50
2018-06-16T08:10:40.286Z,775.90
2018-06-16T08:11:40.327Z,827.20
2018-06-16T08:12:40.391Z,794.80
2018-06-16T08:13:40.525Z,791.40
2018-06-16T08:14:40.454Z,792.20
2018-06-16T08:15:40.509Z,793.30
2018-06-16T08:16:40.532Z,790.70
2018-06-16T08:17:40.574Z,761.60
2018-06-16T08:18:40.621Z,772.50
2018-06-16T08:19:40.900Z,790.30
2018-06-16T08:20:40.709Z,789.00
2018-06-16T08:21:40.737Z,784.50
2018-06-16T08:22:40.772Z,785.90
2018-06-16T08:23:40.815Z,789.80
2018-06-16T08:24:40.939Z,795.10
2018-06-16T08:25:41.004Z,789.80
2018-06-16T08:26:40.936Z,773.90
2018-06-16T08:27:41.003Z,787.20
2018-06-16T08:28:41.036Z,795.00
2018-06-16T08:29:41.086Z,785.20
2018-06-16T08:30:41.109Z,756.20
2018-06-16T08:31:41.150Z,774.20
2018-06-16T08:32:41.210Z,765.10
2018-06-16T08:33:41.239Z,792.60
2018-06-16T08:34:41.287Z,772.50
2018-06-16T08:35:41.523Z,797.10
2018-06-16T08:36:41.469Z,793.50
2018-06-16T08:37:41.402Z,817.60
2018-06-16T08:38:41.444Z,797.50
2018-06-16T08:39:41.497Z,801.30
2018-06-16T08:40:41.527Z,799.40
2018-06-16T08:41:41.551Z,804.20
2018-06-16T08:42:41.845Z,807.20
2018-06-16T08:43:41.667Z,804.00
2018-06-16T08:44:41.712Z,785.70
2018-06-16T08:45:41.729Z,832.10
2018-06-16T08:46:41.781Z,788.10
2018-06-16T08:47:41.920Z,776.80
2018-06-16T08:48:41.867Z,804.40
2018-06-16T08:49:41.896Z,784.70
2018-06-16T08:50:41.943Z,782.30
2018-06-16T08:51:41.965Z,753.70
2018-06-16T08:52:42.023Z,782.80
2018-06-16T08:53:42.263Z,776.30
2018-06-16T08:54:42.102Z,789.30
2018-06-16T08:55:42.234Z,789.80
2018-06-16T08:56:42.190Z,774.60
2018-06-16T08:57:42.236Z,767.30
2018-06-16T08:58:42.267Z,761.30
2018-06-16T08:59:42.399Z,765.30
2018-06-16T09:00:42.342Z,764.70
2018-06-16T09:01:42.387Z,745.10
2018-06-16T09:02:42.435Z,762.70
2018-06-16T09:03:42.461Z,766.40
2018-06-16T09:04:42.527Z,777.80
2018-06-16T09:05:42.744Z,783.80
2018-06-16T09:06:42.601Z,756.00
2018-06-16T09:07:42.645Z,750.10
2018-06-16T09:08:42.673Z,782.20
2018-06-16T09:09:42.735Z,767.50
2018-06-16T09:10:42.771Z,769.90
2018-06-16T09:11:42.906Z,753.50
2018-06-16T09:12:42.834Z,750.10
2018-06-16T09:13:42.888Z,747.40
2018-06-16T09:14:42.927Z,753.70
2018-06-16T09:15:42.967Z,750.90
2018-06-16T09:16:43.204Z,740.50
2018-06-16T09:17:43.054Z,761.90
2018-06-16T09:18:43.080Z,731.70
2018-06-16T09:19:43.135Z,705.10
2018-06-16T09:20:43.163Z,729.00
2018-06-16T09:21:43.211Z,747.40
2018-06-16T09:22:43.425Z,734.80
2018-06-16T09:23:43.306Z,747.00
2018-06-16T09:24:43.350Z,742.60
2018-06-16T09:25:43.392Z,738.50
2018-06-16T09:26:43.430Z,711.20
2018-06-16T09:27:43.484Z,760.00
2018-06-16T09:28:43.753Z,752.70
2018-06-16T09:29:43.541Z,767.10
2018-06-16T09:30:43.602Z,769.20
2018-06-16T09:31:43.675Z,767.20
2018-06-16T09:32:43.658Z,719.10
2018-06-16T09:33:43.714Z,723.00
2018-06-16T09:34:43.873Z,744.60
2018-06-16T09:35:43.795Z,752.30
2018-06-16T09:36:43.842Z,750.20
2018-06-16T09:37:43.876Z,772.10
2018-06-16T09:38:43.921Z,765.10
2018-06-16T09:39:43.946Z,741.20
2018-06-16T09:40:44.266Z,732.50
2018-06-16T09:41:44.050Z,734.10
2018-06-16T09:42:44.094Z,745.00
2018-06-16T09:43:44.117Z,764.60
2018-06-16T09:44:44.167Z,736.90
2018-06-16T09:45:44.304Z,725.60
2018-06-16T09:46:44.251Z,747.20
2018-06-16T09:47:44.294Z,760.70
2018-06-16T09:48:44.335Z,739.10
2018-06-16T09:49:44.385Z,774.10
2018-06-16T09:50:44.410Z,768.00
2018-06-16T09:51:44.698Z,746.20
2018-06-16T09:52:44.488Z,735.90
2018-06-16T09:53:44.528Z,758.80
2018-06-16T09:54:44.565Z,769.80
2018-06-16T09:55:44.621Z,765.50
2018-06-16T09:56:44.671Z,789.90
2018-06-16T09:57:44.797Z,735.60
2018-06-16T09:58:44.743Z,745.80
2018-06-16T09:59:44.783Z,771.20
2018-06-16T10:00:44.824Z,766.50
2018-06-16T10:01:44.867Z,797.40
2018-06-16T10:02:45.113Z,798.20
2018-06-16T10:03:44.945Z,801.30
2018-06-16T10:04:44.992Z,800.90
2018-06-16T10:05:45.043Z,778.60
2018-06-16T10:06:45.076Z,796.80
2018-06-16T10:07:45.100Z,814.80
2018-06-16T10:08:45.239Z,814.90
2018-06-16T10:09:45.200Z,809.80
2018-06-16T10:10:45.222Z,835.10
2018-06-16T10:11:45.263Z,814.60
2018-06-16T10:12:45.324Z,795.90
2018-06-16T10:13:45.546Z,785.70
2018-06-16T10:14:45.395Z,794.50
2018-06-16T10:15:45.427Z,815.90
2018-06-16T10:16:45.483Z,775.60
2018-06-16T10:17:45.531Z,790.60
2018-06-16T10:18:45.587Z,770.10
2018-06-16T10:19:45.702Z,736.50
2018-06-16T10:20:45.662Z,786.70
2018-06-16T10:21:45.680Z,795.70
2018-06-16T10:22:45.730Z,782.60
2018-06-16T10:23:45.763Z,781.60
2018-06-16T10:24:45.823Z,790.60
2018-06-16T10:25:46.061Z,763.80
2018-06-16T10:26:45.897Z,753.20
2018-06-16T10:27:45.934Z,733.20
2018-06-16T10:28:45.983Z,724.40
2018-06-16T10:29:46.018Z,770.20
2018-06-16T10:30:46.048Z,775.00
2018-06-16T10:31:46.199Z,767.30
2018-06-16T10:32:46.131Z,784.60
2018-06-16T10:33:46.194Z,800.70
2018-06-16T10:34:46.208Z,778.80
2018-06-16T10:35:46.248Z,796.70
2018-06-16T10:36:46.498Z,757.10
2018-06-16T10:37:46.347Z,736.50
2018-06-16T10:38:46.381Z,727.50
2018-06-16T10:39:46.433Z,723.60
2018-06-16T10:40:46.482Z,724.60
2018-06-16T10:41:46.516Z,730.70
2018-06-16T10:42:46.652Z,733.10
2018-06-16T10:43:46.584Z,711.60
2018-06-16T10:44:46.621Z,693.70
2018-06-16T10:45:46.676Z,713.70
2018-06-16T10:46:46.714Z,721.30
2018-06-16T10:47:46.944Z,704.00
2018-06-16T10:48:46.786Z,677.00
2018-06-16T10:49:46.848Z,706.40
2018-06-16T10:50:46.878Z,739.60
2018-06-16T10:51:46.931Z,711.10
2018-06-16T10:52:47.064Z,720.50
2018-06-16T10:53:47.021Z,679.70
2018-06-16T10:54:47.048Z,677.00
2018-06-16T10:55:47.096Z,647.10
2018-06-16T10:56:47.122Z,679.00
2018-06-16T10:57:47.424Z,685.60
2018-06-16T10:58:47.230Z,674.60
2018-06-16T10:59:47.263Z,686.40
2018-06-16T11:00:47.306Z,672.50
2018-06-16T11:01:47.336Z,640.70
2018-06-16T11:02:47.474Z,673.70
2018-06-16T11:03:47.422Z,677.00
2018-06-16T11:04:47.479Z,693.30
2018-06-16T11:05:47.506Z,664.30
2018-06-16T11:06:47.560Z,642.20
2018-06-16T11:07:47.800Z,682.30
2018-06-16T11:08:47.632Z,656.90
2018-06-16T11:09:47.663Z,639.80
2018-06-16T11:10:47.708Z,673.40
2018-06-16T11:11:47.740Z,650.00
2018-06-16T11:12:47.921Z,626.80
2018-06-16T11:13:47.829Z,645.10
2018-06-16T11:14:47.898Z,697.80
2018-06-16T11:15:47.922Z,654.30
2018-06-16T11:16:47.948Z,634.70
2018-06-16T11:17:47.997Z,648.40
2018-06-16T11:18:48.049Z,681.20
2018-06-16T11:19:48.079Z,673.80
2018-06-16T11:20:48.144Z,658.20
2018-06-16T11:21:48.174Z,682.90
2018-06-16T11:22:48.215Z,701.00
2018-06-16T11:23:48.342Z,686.00
2018-06-16T11:24:48.483Z,696.20
2018-06-16T11:25:48.342Z,763.70
2018-06-16T11:26:48.388Z,749.40
2018-06-16T11:27:48.414Z,692.30
2018-06-16T11:28:48.456Z,704.10
2018-06-16T11:29:48.822Z,682.30
2018-06-16T11:30:48.644Z,731.90
2018-06-16T11:31:48.585Z,702.60
2018-06-16T11:32:48.652Z,681.30
2018-06-16T11:33:48.687Z,696.40
2018-06-16T11:34:48.711Z,713.30
2018-06-16T11:35:48.848Z,757.40
2018-06-16T11:36:48.993Z,773.10
2018-06-16T11:37:48.829Z,714.30
2018-06-16T11:38:48.890Z,688.60
2018-06-16T11:39:48.918Z,750.20
2018-06-16T11:40:48.983Z,747.60
2018-06-16T11:41:49.118Z,742.20
2018-06-16T11:42:49.257Z,744.90
2018-06-16T11:43:49.079Z,778.10
2018-06-16T11:44:49.122Z,765.60
2018-06-16T11:45:49.177Z,741.00
2018-06-16T11:46:49.225Z,769.90
2018-06-16T11:47:49.273Z,785.70
2018-06-16T11:48:49.352Z,773.30
2018-06-16T11:49:49.349Z,759.50
2018-06-16T11:50:49.392Z,771.20
2018-06-16T11:51:49.435Z,809.70
2018-06-16T11:52:49.578Z,779.90
2018-06-16T11:53:49.529Z,761.90
2018-06-16T11:54:49.556Z,774.20
2018-06-16T11:55:49.609Z,767.40
2018-06-16T11:56:49.631Z,741.00
2018-06-16T11:57:49.684Z,774.20
2018-06-16T11:58:49.730Z,727.50
2018-06-16T11:59:49.753Z,761.30
2018-06-16T12:00:49.821Z,836.10
2018-06-16T12:01:49.922Z,797.30
2018-06-16T12:02:50.000Z,775.60
2018-06-16T12:03:49.936Z,726.50
2018-06-16T12:04:49.978Z,772.00
2018-06-16T12:05:50.009Z,799.00
2018-06-16T12:06:50.057Z,777.80
2018-06-16T12:07:50.107Z,782.50
2018-06-16T12:08:50.143Z,770.60
2018-06-16T12:09:50.304Z,759.30
2018-06-16T12:10:50.217Z,777.60
2018-06-16T12:11:50.257Z,775.50
2018-06-16T12:12:50.301Z,766.00
2018-06-16T12:13:50.357Z,779.90
2018-06-16T12:14:50.591Z,797.00
2018-06-16T12:15:50.446Z,750.50
2018-06-16T12:16:50.497Z,760.00
2018-06-16T12:17:50.536Z,761.00
2018-06-16T12:18:50.568Z,741.70
2018-06-16T12:19:50.708Z,764.50
2018-06-16T12:20:50.664Z,775.30
2018-06-16T12:21:50.689Z,794.00
2018-06-16T12:22:50.734Z,742.60
2018-06-16T12:23:50.786Z,782.30
2018-06-16T12:24:50.821Z,795.90
2018-06-16T12:25:50.869Z,771.80
2018-06-16T12:26:50.908Z,776.10
2018-06-16T12:27:50.951Z,779.70
2018-06-16T12:28:50.982Z,767.00